METAR AND TAF INFORMATION
METAR FOR FVRG
ADDS - METARS form results

(1133 UTC 14 October 2019)
Data provider http://aviationweather.gov/metar/data/
 
METAR text: FVRG 141100Z 17012KT 100V210 CAVOK 29/M04 Q1023 NOSIG
Conditions at: FVRG (HARARE/MUGABE , ZW) observed 1100 UTC 14 October 2019
Temperature: 29.0°C (84°F)
Dewpoint: -4.0°C (25°F) [RH = 11%]
Pressure (altimeter): 30.21 inches Hg (1023.0 mb)
Winds: from the S (170 degrees) at 14 MPH (12 knots; 6.2 m/s)
Visibility: 6 or more miles (10+ km)
Ceiling: ceiling and visibility are OK
Clouds: unknown
Weather: no significant weather observed at this time

Forecast for: FVRG (HARARE/MUGABE , ZW)
Text: TAF FVRG 141000Z 1412/1518 13008KT CAVOK
Forecast period: 1200 UTC 14 October 2019 to 1800 UTC 15 October 2019
Forecast type: FROM: standard forecast or significant change
Winds: from the SE (130 degrees) at 9 MPH (8 knots; 4.1 m/s)
Visibility: 6 or more miles 10+ km)
Ceiling: unknown
Clouds: missing
Weather: NSW  (no significant weather)

 AIRPORT MAP

 RUNWAY INFORMATION

 AIRPORT FREQUENCIES

 AIRPORT NEAR NAVIGATION AIDS



The South Africal Virtual Air Force